Hectorville, Vermont
Current Conditions -  °F | °C
As of 4:55 AM on Monday 22 Dec 2014 (Local Time) from KEFK Reporting Station
Haze Haze  
Wind Chill: 19°   Ceiling: 2200
Heat Index: 19°   Visibility: 5mi
Dew Point: 18°   Wind: 0mph
Humidity: 93%   Direction: NA
Pressure: 30.34"   Gusts: NA
Location:  44.8557°N, 72.6016°W
Report Text: KEFK 220955Z AUTO 00000KT 5SM BR OVC022 M07/M08 A3034 RMK AO2 T10701080
Loading
Personal Weather Stations






























Interactive Weather Map New forecast layout! Learn more

10-Day Weather Forecast

Advertisements
Track Severe Weather on mobile